Johnny James — WYT8450 — position and weather

sailwx.info

Track history (hours):
 
Tides and Currents Weather Stations Pressure Air Temp Water Temp Dewpoint Dewpoint Depression Visibility Wind Speed Wind Dir Waves Ship Positions

Johnny James

Owner: CALLAIS & SONS INC, CUT OFF, LA. More information available from US FCC via Universal Licensing System and Coast Guard Vessel Documentation Center.

Last reported at 2015-Apr-10 17:32 UTC. Time now 2015-Apr-19 15:45 UTC.
Position N 29°32' W 090°49'.
Warning: this ship's position is 8 days out of date.

Length 20 m.

Type: Towing. MMSI: 367005220.

Date/timePositionNaut miles runAvg speedWind from/ knotsBaromVisibWave heightAir tempDewpointWater temp
2015-Apr-10 17:32N 29°32' W 090°49'3 3.5
2015-Apr-10 16:33N 29°33' W 090°45'3 3.1
2015-Apr-10 15:33N 29°36' W 090°43'3 2.6
2015-Apr-10 14:33N 29°36' W 090°40'2 2.2
2015-Apr-10 13:33N 29°35' W 090°37'0 0.1
2015-Apr-10 12:33N 29°35' W 090°37'0 0.0
2015-Apr-10 11:33N 29°35' W 090°37'0 0.0
2015-Apr-10 10:33N 29°35' W 090°37'0 0.0
2015-Apr-10 09:33N 29°35' W 090°37'1 0.6
2015-Apr-10 08:33N 29°35' W 090°37'4 3.9
2015-Apr-10 07:33N 29°34' W 090°32'35 1.2
2015-Apr-09 02:04N 29°54' W 089°60'0 0.0
2015-Apr-09 01:27N 29°54' W 089°60'0 0.0
2015-Apr-08 21:04N 29°54' W 089°60'0 0.0
2015-Apr-08 19:12N 29°54' W 089°60'33 1.1
2015-Apr-07 14:32N 29°34' W 090°29'4 3.9
2015-Apr-07 13:33N 29°34' W 090°34'1 0.9
2015-Apr-07 12:33N 29°34' W 090°35'0 0.1
2015-Apr-07 11:33N 29°34' W 090°35'3 3.2
2015-Apr-07 10:34N 29°35' W 090°38'2 1.9
2015-Apr-07 09:33N 29°36' W 090°40'3 2.6
2015-Apr-07 08:33N 29°35' W 090°43'3 3.1
2015-Apr-07 07:33N 29°33' W 090°45'0 0.1
2015-Apr-07 06:34N 29°33' W 090°45'0 0.0
2015-Apr-07 05:34N 29°33' W 090°45'0 0.0
2015-Apr-07 04:33N 29°33' W 090°45'2 1.8
2015-Apr-07 03:33N 29°32' W 090°47'4 3.5
2015-Apr-07 02:33N 29°32' W 090°52'4 3.7
2015-Apr-07 01:32N 29°34' W 090°56'4 3.8
2015-Apr-07 00:31N 29°36' W 090°59'  
Track history (hours):
 
Tides and Currents Weather Stations Pressure Air Temp Water Temp Dewpoint Dewpoint Depression Visibility Wind Speed Wind Dir Waves Ship Positions

Johnny James

Owner: CALLAIS & SONS INC, CUT OFF, LA. More information available from US FCC via Universal Licensing System and Coast Guard Vessel Documentation Center.

Last reported at 2015-Apr-10 17:32 UTC. Time now 2015-Apr-19 15:45 UTC.
Position N 29°32' W 090°49'.
Warning: this ship's position is 8 days out of date.

Length 20 m.

Type: Towing. MMSI: 367005220.

Date/timePositionNaut miles runAvg speedWind from/ knotsBaromVisibWave heightAir tempDewpointWater temp
2015-Apr-10 17:32N 29°32' W 090°49'3 3.5
2015-Apr-10 16:33N 29°33' W 090°45'3 3.1
2015-Apr-10 15:33N 29°36' W 090°43'3 2.6
2015-Apr-10 14:33N 29°36' W 090°40'2 2.2
2015-Apr-10 13:33N 29°35' W 090°37'0 0.1
2015-Apr-10 12:33N 29°35' W 090°37'0 0.0
2015-Apr-10 11:33N 29°35' W 090°37'0 0.0
2015-Apr-10 10:33N 29°35' W 090°37'0 0.0
2015-Apr-10 09:33N 29°35' W 090°37'1 0.6
2015-Apr-10 08:33N 29°35' W 090°37'4 3.9
2015-Apr-10 07:33N 29°34' W 090°32'35 1.2
2015-Apr-09 02:04N 29°54' W 089°60'0 0.0
2015-Apr-09 01:27N 29°54' W 089°60'0 0.0
2015-Apr-08 21:04N 29°54' W 089°60'0 0.0
2015-Apr-08 19:12N 29°54' W 089°60'33 1.1
2015-Apr-07 14:32N 29°34' W 090°29'4 3.9
2015-Apr-07 13:33N 29°34' W 090°34'1 0.9
2015-Apr-07 12:33N 29°34' W 090°35'0 0.1
2015-Apr-07 11:33N 29°34' W 090°35'3 3.2
2015-Apr-07 10:34N 29°35' W 090°38'2 1.9
2015-Apr-07 09:33N 29°36' W 090°40'3 2.6
2015-Apr-07 08:33N 29°35' W 090°43'3 3.1
2015-Apr-07 07:33N 29°33' W 090°45'0 0.1
2015-Apr-07 06:34N 29°33' W 090°45'0 0.0
2015-Apr-07 05:34N 29°33' W 090°45'0 0.0
2015-Apr-07 04:33N 29°33' W 090°45'2 1.8
2015-Apr-07 03:33N 29°32' W 090°47'4 3.5
2015-Apr-07 02:33N 29°32' W 090°52'4 3.7
2015-Apr-07 01:32N 29°34' W 090°56'4 3.8
2015-Apr-07 00:31N 29°36' W 090°59'  

Dump ship's entire track history